createdAt,value
2023-03-19T08:19:56.415Z,10.42
2023-03-19T08:20:57.873Z,10.50
2023-03-19T08:21:59.266Z,11.03
2023-03-19T08:23:00.852Z,11.14
2023-03-19T08:24:04.895Z,11.27
2023-03-19T08:25:07.458Z,11.47
2023-03-19T08:26:08.913Z,11.61
2023-03-19T08:27:10.254Z,12.25
2023-03-19T08:28:12.034Z,12.61
2023-03-19T08:29:13.451Z,12.96
2023-03-19T08:30:15.654Z,12.85
2023-03-19T08:31:17.373Z,12.61
2023-03-19T08:32:18.842Z,12.50
2023-03-19T08:33:20.207Z,12.41
2023-03-19T08:34:22.549Z,12.60
2023-03-19T08:35:26.986Z,12.33
2023-03-19T08:36:28.393Z,12.05
2023-03-19T08:37:30.056Z,12.08
2023-03-19T08:38:31.446Z,12.11
2023-03-19T08:39:32.956Z,11.92
2023-03-19T08:40:34.582Z,11.78
2023-03-19T08:41:36.254Z,11.95
2023-03-19T08:42:44.826Z,11.77
2023-03-19T08:43:46.798Z,11.90
2023-03-19T08:44:49.063Z,12.20
2023-03-19T08:45:50.580Z,12.05
2023-03-19T08:46:52.279Z,11.99
2023-03-19T08:47:53.799Z,11.81
2023-03-19T08:48:55.212Z,11.71
2023-03-19T08:49:56.669Z,11.57
2023-03-19T08:51:01.581Z,11.65
2023-03-19T08:52:03.580Z,12.06
2023-03-19T08:53:05.398Z,13.01
2023-03-19T08:54:06.950Z,13.29
2023-03-19T08:55:09.787Z,13.04
2023-03-19T08:56:11.115Z,12.71
2023-03-19T08:57:12.577Z,12.48
2023-03-19T08:58:13.894Z,12.28
2023-03-19T08:59:16.570Z,11.95
2023-03-19T09:00:19.382Z,11.91
2023-03-19T09:01:21.146Z,11.62
2023-03-19T09:02:22.568Z,11.79
2023-03-19T09:03:24.054Z,11.76
2023-03-19T09:04:25.654Z,11.81
2023-03-19T09:05:29.645Z,11.67
2023-03-19T09:06:31.344Z,11.69
2023-03-19T09:07:32.835Z,11.75
2023-03-19T09:08:35.494Z,11.68
2023-03-19T09:09:37.056Z,11.82
2023-03-19T09:10:38.981Z,11.88
2023-03-19T09:11:40.669Z,12.02
2023-03-19T09:12:42.309Z,12.06
2023-03-19T09:13:44.447Z,12.00
2023-03-19T09:14:45.944Z,11.93
2023-03-19T09:15:47.389Z,11.90
2023-03-19T09:16:48.879Z,12.11
2023-03-19T09:17:50.988Z,12.18
2023-03-19T09:18:52.389Z,11.96
2023-03-19T09:19:53.848Z,11.92
2023-03-19T09:20:55.324Z,11.61
2023-03-19T09:21:56.674Z,11.72
2023-03-19T09:22:58.145Z,11.86
2023-03-19T09:23:59.562Z,11.90
2023-03-19T09:25:00.984Z,11.96
2023-03-19T09:26:02.450Z,11.86
2023-03-19T09:27:03.918Z,11.77
2023-03-19T09:28:05.488Z,11.76
2023-03-19T09:29:07.093Z,11.72
2023-03-19T09:30:11.884Z,11.71
2023-03-19T09:31:13.541Z,11.87
2023-03-19T09:32:15.304Z,11.87
2023-03-19T09:33:18.304Z,11.96
2023-03-19T09:34:19.712Z,12.07
2023-03-19T09:35:21.491Z,11.95
2023-03-19T09:36:22.989Z,12.04
2023-03-19T09:37:24.377Z,12.08
2023-03-19T09:38:25.756Z,12.14
2023-03-19T09:39:27.263Z,12.17
2023-03-19T09:40:45.911Z,12.37
2023-03-19T09:42:05.853Z,13.09
2023-03-19T09:43:26.325Z,13.78
2023-03-19T09:44:32.643Z,14.82
2023-03-19T09:45:34.729Z,14.59
2023-03-19T09:46:41.713Z,14.76
2023-03-19T09:47:45.548Z,14.97
2023-03-19T09:48:50.451Z,14.96
2023-03-19T09:49:54.146Z,15.79
2023-03-19T09:50:56.448Z,16.20
2023-03-19T09:52:09.587Z,17.10
2023-03-19T09:53:37.805Z,18.53
2023-03-19T09:54:39.104Z,18.98
2023-03-19T09:55:45.061Z,18.27
2023-03-19T09:56:46.404Z,18.55
2023-03-19T09:57:48.301Z,18.98
2023-03-19T09:58:50.046Z,18.74
2023-03-19T09:59:53.137Z,18.57
2023-03-19T10:00:55.412Z,18.33
2023-03-19T10:02:15.866Z,18.55
2023-03-19T10:03:20.383Z,18.89
2023-03-19T10:04:43.772Z,19.83
2023-03-19T10:05:56.716Z,19.28
2023-03-19T10:07:29.066Z,17.59
2023-03-19T10:08:32.478Z,17.10
2023-03-19T10:09:46.073Z,17.67
2023-03-19T10:10:50.944Z,18.70
2023-03-19T10:12:17.310Z,18.94
2023-03-19T10:13:39.585Z,18.27
2023-03-19T10:15:02.154Z,18.06
2023-03-19T10:16:05.068Z,17.29
2023-03-19T10:17:12.170Z,17.60
2023-03-19T10:18:19.761Z,18.15
2023-03-19T10:19:40.051Z,18.61
2023-03-19T10:21:00.590Z,19.03
2023-03-19T10:22:07.836Z,18.97
2023-03-19T10:23:31.076Z,18.75
2023-03-19T10:24:37.334Z,18.58
2023-03-19T10:25:41.731Z,18.55
2023-03-19T10:26:45.891Z,19.08
2023-03-19T10:28:00.387Z,19.58
2023-03-19T10:29:11.208Z,19.07
2023-03-19T10:30:15.920Z,19.79
2023-03-19T10:31:30.092Z,19.62
2023-03-19T10:32:46.152Z,18.05
2023-03-19T10:34:11.344Z,18.03
2023-03-19T10:35:24.280Z,17.37
2023-03-19T10:36:30.664Z,17.01
2023-03-19T10:37:35.568Z,17.05
2023-03-19T10:38:43.807Z,16.65
2023-03-19T10:39:47.176Z,16.08
2023-03-19T10:41:05.927Z,15.53
2023-03-19T10:42:44.843Z,15.28
2023-03-19T10:43:56.899Z,15.22
2023-03-19T10:45:19.012Z,15.29
2023-03-19T10:46:21.738Z,15.05
2023-03-19T10:47:26.400Z,14.99
2023-03-19T10:48:28.400Z,14.78
2023-03-19T10:49:35.512Z,15.05
2023-03-19T10:50:53.732Z,15.13
2023-03-19T10:51:57.333Z,15.28
2023-03-19T10:53:06.711Z,15.39
2023-03-19T10:54:23.292Z,15.42
2023-03-19T10:55:26.561Z,15.43
2023-03-19T10:56:34.033Z,15.18
2023-03-19T10:57:35.410Z,15.34
2023-03-19T10:58:37.447Z,15.43
2023-03-19T10:59:39.088Z,15.32
2023-03-19T11:00:40.469Z,15.68
2023-03-19T11:01:42.965Z,15.72
2023-03-19T11:02:49.816Z,15.92
2023-03-19T11:03:56.171Z,15.96
2023-03-19T11:05:22.287Z,16.23
2023-03-19T11:06:28.055Z,16.85
2023-03-19T11:07:33.174Z,16.62
2023-03-19T11:08:37.574Z,16.40
2023-03-19T11:09:42.597Z,16.12
2023-03-19T11:10:49.353Z,16.02
2023-03-19T11:11:57.671Z,16.14
2023-03-19T11:13:05.452Z,16.28
2023-03-19T11:14:21.827Z,16.55
2023-03-19T11:15:38.090Z,16.93
2023-03-19T11:16:54.826Z,16.79
2023-03-19T11:17:59.176Z,16.29
2023-03-19T11:19:00.629Z,16.13
2023-03-19T11:20:29.141Z,17.00
2023-03-19T11:21:32.829Z,16.99
2023-03-19T11:22:37.563Z,16.76
2023-03-19T11:23:42.486Z,16.47
2023-03-19T11:25:20.444Z,16.67
2023-03-19T11:26:23.221Z,16.46
2023-03-19T11:27:34.785Z,16.10
2023-03-19T11:28:37.850Z,16.04
2023-03-19T11:29:44.536Z,16.05
2023-03-19T11:31:23.989Z,15.92
2023-03-19T11:32:57.855Z,15.84
2023-03-19T11:34:23.718Z,15.40
2023-03-19T11:35:44.706Z,15.17
2023-03-19T11:37:08.329Z,15.10
2023-03-19T11:38:24.858Z,14.95
2023-03-19T11:39:58.555Z,15.14
2023-03-19T11:41:11.806Z,15.11
2023-03-19T11:42:45.058Z,14.37
2023-03-19T11:43:59.295Z,14.47
2023-03-19T11:45:12.829Z,14.38
2023-03-19T11:46:19.385Z,14.40
2023-03-19T11:47:32.379Z,14.40
2023-03-19T11:48:42.907Z,14.27
2023-03-19T11:50:00.404Z,14.26
2023-03-19T11:51:17.104Z,14.38
2023-03-19T11:52:28.341Z,14.41
2023-03-19T11:53:37.030Z,14.40
2023-03-19T11:54:58.576Z,14.29
2023-03-19T11:56:29.960Z,14.27
2023-03-19T11:57:46.309Z,13.86
2023-03-19T11:58:57.695Z,13.81
2023-03-19T12:00:26.594Z,13.51
2023-03-19T12:01:41.950Z,13.63
2023-03-19T12:03:02.300Z,13.55
2023-03-19T12:04:34.070Z,13.61
2023-03-19T12:05:44.640Z,13.60
2023-03-19T12:07:04.354Z,13.57
2023-03-19T12:08:14.986Z,13.61
2023-03-19T12:09:27.940Z,13.66
2023-03-19T12:10:53.711Z,13.73
2023-03-19T12:11:58.019Z,13.86
2023-03-19T12:13:23.751Z,13.95
2023-03-19T12:14:39.456Z,13.94
2023-03-19T12:16:15.318Z,14.01
2023-03-19T12:18:01.718Z,14.12
2023-03-19T12:19:39.699Z,14.05
2023-03-19T12:20:48.578Z,14.09
2023-03-19T12:21:52.861Z,13.96
2023-03-19T12:23:12.118Z,14.17
2023-03-19T12:24:32.351Z,14.46
2023-03-19T12:25:33.970Z,14.56
2023-03-19T12:26:51.061Z,14.65
2023-03-19T12:27:59.237Z,14.62
2023-03-19T12:29:20.586Z,14.71
2023-03-19T12:30:44.958Z,14.86
2023-03-19T12:32:01.015Z,14.83
2023-03-19T12:33:36.810Z,14.80
2023-03-19T12:34:45.259Z,14.65
2023-03-19T12:35:50.197Z,14.83
2023-03-19T12:37:04.612Z,14.64
2023-03-19T12:38:06.005Z,14.78
2023-03-19T12:39:14.479Z,15.12
2023-03-19T12:40:29.151Z,15.59
2023-03-19T12:41:34.064Z,15.57
2023-03-19T12:42:40.071Z,15.55
2023-03-19T12:43:53.980Z,15.28
2023-03-19T12:44:59.156Z,15.24
2023-03-19T12:46:06.830Z,15.33
2023-03-19T12:47:16.859Z,15.49
2023-03-19T12:48:25.715Z,15.19
2023-03-19T12:49:38.029Z,15.25
2023-03-19T12:50:43.362Z,15.02
2023-03-19T12:51:59.834Z,15.14
2023-03-19T12:53:05.800Z,15.32
2023-03-19T12:54:18.249Z,15.32
2023-03-19T12:55:55.484Z,15.24
2023-03-19T12:57:03.902Z,15.37
2023-03-19T12:58:34.182Z,15.44
2023-03-19T13:00:01.348Z,15.60
2023-03-19T13:01:12.557Z,15.67
2023-03-19T13:02:19.054Z,15.47
2023-03-19T13:03:44.615Z,15.52
2023-03-19T13:05:23.008Z,15.54
2023-03-19T13:07:07.288Z,14.99
2023-03-19T13:08:29.447Z,15.22
2023-03-19T13:09:56.717Z,15.28
2023-03-19T13:10:59.666Z,15.41
2023-03-19T13:12:10.431Z,15.32
2023-03-19T13:13:28.381Z,15.14
2023-03-19T13:14:50.924Z,15.14
2023-03-19T13:15:58.996Z,15.08
2023-03-19T13:17:21.554Z,15.08
2023-03-19T13:18:46.349Z,15.04
2023-03-19T13:19:54.191Z,14.85
2023-03-19T13:21:21.644Z,14.85
2023-03-19T13:22:27.705Z,14.88
2023-03-19T13:23:34.016Z,14.90
2023-03-19T13:24:40.710Z,14.77
2023-03-19T13:25:48.291Z,14.82
2023-03-19T13:26:52.696Z,14.67
2023-03-19T13:27:55.306Z,14.59
2023-03-19T13:29:01.608Z,14.56
2023-03-19T13:30:03.974Z,14.74
2023-03-19T13:31:08.612Z,14.84
2023-03-19T13:32:24.319Z,14.81
2023-03-19T13:33:26.658Z,14.73
2023-03-19T13:34:31.938Z,14.84
2023-03-19T13:35:49.374Z,14.93
2023-03-19T13:36:58.032Z,14.98
2023-03-19T13:38:04.103Z,15.03
2023-03-19T13:39:15.373Z,15.14
2023-03-19T13:40:39.899Z,15.10
2023-03-19T13:41:42.579Z,15.13
2023-03-19T13:42:44.080Z,15.20
2023-03-19T13:43:55.082Z,15.26
2023-03-19T13:45:04.367Z,15.17
2023-03-19T14:15:10.046Z,14.69
2023-03-19T14:16:33.358Z,14.66
2023-03-19T14:17:42.432Z,14.48
2023-03-19T14:18:44.810Z,14.58
2023-03-19T14:19:46.399Z,14.81
2023-03-19T14:21:03.193Z,14.65
2023-03-19T14:22:17.186Z,14.67
2023-03-19T14:23:38.480Z,14.82
2023-03-19T14:24:56.693Z,14.83
2023-03-19T14:26:28.823Z,14.79
2023-03-19T14:27:36.076Z,14.78
2023-03-19T14:29:02.541Z,14.83
2023-03-19T14:30:18.946Z,14.61
2023-03-19T14:31:26.927Z,14.42
2023-03-19T14:32:40.948Z,14.62
2023-03-19T14:33:46.673Z,14.57
2023-03-19T14:34:49.820Z,14.56
2023-03-19T14:35:51.811Z,14.54
2023-03-19T14:39:33.021Z,14.43
2023-03-19T14:40:44.317Z,14.46
